Peter R. Weiss — WDF8566 — position and weather

sailwx.info

Track history (hours):
 
Tides and Currents Weather Stations Pressure Air Temp Water Temp Dewpoint Dewpoint Depression Visibility Wind Speed Wind Dir Waves Ship Positions

Peter R. Weiss

Owner: Billybey Ferry Company LLC, Weehawken, NJ. More information available from US FCC via Universal Licensing System and Coast Guard Vessel Documentation Center.

Last reported at 2017-Sep-28 15:28 UTC. Time now 2017-Oct-18 11:01 UTC.
Position N 40°43' W 074°03'.
Warning: this ship's position is 19 days out of date.

Length 26 m.

Type: Passenger vessel. MMSI: 367496240.

Date/timePositionNaut miles runAvg speedWind from/ knotsBaromVisibWave heightAir tempDewpointWater temp
2017-Sep-28 15:28N 40°43' W 074°03'1 1.3
2017-Sep-28 15:01N 40°43' W 074°02'3 6.1
2017-Sep-28 14:30N 40°42' W 073°58'  
2017-Sep-24 23:02N 40°42' W 073°58'0 0.0
2017-Sep-24 23:00N 40°42' W 073°58'0 0.0
2017-Sep-24 22:30N 40°42' W 073°58'0 0.0
2017-Sep-24 22:00N 40°42' W 073°58'0 0.0
2017-Sep-24 21:30N 40°42' W 073°58'0 0.0
2017-Sep-24 21:00N 40°42' W 073°58'0 0.0
2017-Sep-24 20:30N 40°42' W 073°58'0 0.0
2017-Sep-24 19:59N 40°42' W 073°58'0 0.0
2017-Sep-24 19:30N 40°42' W 073°58'1 1.3
2017-Sep-24 19:00N 40°42' W 073°59'1 2.1
2017-Sep-24 18:30N 40°42' W 074°00'1 1.5
2017-Sep-24 18:00N 40°42' W 073°59'1 1.5
2017-Sep-24 17:30N 40°42' W 074°00'  
Track history (hours):
 
Tides and Currents Weather Stations Pressure Air Temp Water Temp Dewpoint Dewpoint Depression Visibility Wind Speed Wind Dir Waves Ship Positions

Peter R. Weiss

Owner: Billybey Ferry Company LLC, Weehawken, NJ. More information available from US FCC via Universal Licensing System and Coast Guard Vessel Documentation Center.

Last reported at 2017-Sep-28 15:28 UTC. Time now 2017-Oct-18 11:01 UTC.
Position N 40°43' W 074°03'.
Warning: this ship's position is 19 days out of date.

Length 26 m.

Type: Passenger vessel. MMSI: 367496240.

Date/timePositionNaut miles runAvg speedWind from/ knotsBaromVisibWave heightAir tempDewpointWater temp
2017-Sep-28 15:28N 40°43' W 074°03'1 1.3
2017-Sep-28 15:01N 40°43' W 074°02'3 6.1
2017-Sep-28 14:30N 40°42' W 073°58'  
2017-Sep-24 23:02N 40°42' W 073°58'0 0.0
2017-Sep-24 23:00N 40°42' W 073°58'0 0.0
2017-Sep-24 22:30N 40°42' W 073°58'0 0.0
2017-Sep-24 22:00N 40°42' W 073°58'0 0.0
2017-Sep-24 21:30N 40°42' W 073°58'0 0.0
2017-Sep-24 21:00N 40°42' W 073°58'0 0.0
2017-Sep-24 20:30N 40°42' W 073°58'0 0.0
2017-Sep-24 19:59N 40°42' W 073°58'0 0.0
2017-Sep-24 19:30N 40°42' W 073°58'1 1.3
2017-Sep-24 19:00N 40°42' W 073°59'1 2.1
2017-Sep-24 18:30N 40°42' W 074°00'1 1.5
2017-Sep-24 18:00N 40°42' W 073°59'1 1.5
2017-Sep-24 17:30N 40°42' W 074°00'  

Dump ship's entire track history